Time;durP1;ratioP1;P1;durP2;ratioP2;P2;SDS_P1;SDS_P2;PMS_P1;PMS_P2;Temp;Humidity;BMP_temperature;BMP_pressure;BME280_temperature;BME280_humidity;BME280_pressure;Samples;Min_cycle;Max_cycle;Signal;HPM_P1;HPM_P2
2023/01/16 00:00:43;;;;;;;5.47;2.45;;;4.20;99.90;;;;;;5046860;28;20038;-63
2023/01/16 00:03:08;;;;;;;8.20;2.40;;;4.30;99.90;;;;;;5049143;28;20033;-63
2023/01/16 00:05:34;;;;;;;9.13;3.38;;;4.20;99.90;;;;;;5045991;28;20060;-63
2023/01/16 00:08:00;;;;;;;10.23;2.50;;;4.30;99.90;;;;;;5053432;28;20047;-64
2023/01/16 00:10:26;;;;;;;7.18;2.45;;;4.40;99.90;;;;;;5052062;28;20128;-64
2023/01/16 00:12:51;;;;;;;9.68;2.42;;;4.20;99.90;;;;;;5051916;28;20048;-65
2023/01/16 00:15:17;;;;;;;5.75;2.05;;;4.40;99.90;;;;;;5051988;28;20037;-64
2023/01/16 00:17:43;;;;;;;9.15;2.67;;;4.30;99.90;;;;;;5051502;28;20119;-64
2023/01/16 00:20:09;;;;;;;6.07;2.30;;;4.50;99.90;;;;;;5052244;28;20068;-66
2023/01/16 00:22:35;;;;;;;7.68;2.40;;;4.30;99.90;;;;;;5052196;28;20056;-65
2023/01/16 00:25:00;;;;;;;8.75;2.50;;;3.70;99.90;;;;;;5053371;28;20550;-65
2023/01/16 00:27:26;;;;;;;8.18;2.10;;;4.30;99.90;;;;;;5051092;28;20045;-63
2023/01/16 00:29:52;;;;;;;7.25;2.40;;;4.60;99.90;;;;;;5052548;28;20045;-63
2023/01/16 00:32:17;;;;;;;7.45;2.53;;;4.40;99.90;;;;;;5049521;28;20033;-64
2023/01/16 00:34:43;;;;;;;6.75;2.00;;;4.40;99.90;;;;;;5044262;28;20076;-64
2023/01/16 00:37:09;;;;;;;4.00;2.40;;;4.40;99.90;;;;;;5049471;28;20056;-65
2023/01/16 00:39:38;;;;;;;7.05;2.40;;;4.40;99.90;;;;;;5045749;28;20041;-64
2023/01/16 00:42:04;;;;;;;7.72;2.35;;;4.40;99.90;;;;;;5047996;28;20048;-65
2023/01/16 00:44:29;;;;;;;5.95;2.25;;;5.50;99.90;;;;;;5044873;28;20045;-65
2023/01/16 00:46:55;;;;;;;8.23;2.65;;;4.40;99.90;;;;;;5050721;28;20072;-65
2023/01/16 00:49:21;;;;;;;4.75;1.90;;;4.40;99.90;;;;;;5050400;28;20104;-65
2023/01/16 00:51:47;;;;;;;5.45;2.17;;;4.40;99.90;;;;;;5051756;28;20118;-65
2023/01/16 00:54:12;;;;;;;7.43;2.20;;;4.40;99.90;;;;;;5053302;28;20088;-64
2023/01/16 00:56:38;;;;;;;11.23;2.42;;;4.40;99.90;;;;;;5049232;28;20053;-63
2023/01/16 00:59:04;;;;;;;8.43;2.40;;;4.40;99.90;;;;;;5051435;28;20041;-64
2023/01/16 01:01:29;;;;;;;6.60;2.08;;;4.40;99.90;;;;;;5049270;28;20071;-64
2023/01/16 01:03:57;;;;;;;8.18;2.30;;;4.40;99.90;;;;;;5052023;28;20083;-65
2023/01/16 01:06:22;;;;;;;8.23;2.45;;;4.40;99.90;;;;;;5050105;28;20080;-64
2023/01/16 01:08:48;;;;;;;7.63;2.70;;;4.40;99.90;;;;;;5050765;28;20048;-65
2023/01/16 01:11:14;;;;;;;7.43;2.47;;;4.40;99.90;;;;;;5049083;28;20037;-65
2023/01/16 01:13:41;;;;;;;9.48;2.30;;;4.40;99.90;;;;;;5051498;28;20033;-65
2023/01/16 01:16:07;;;;;;;7.20;2.47;;;4.40;99.90;;;;;;5051220;28;20049;-65
2023/01/16 01:18:33;;;;;;;5.18;2.22;;;4.40;99.90;;;;;;5050281;28;20067;-67
2023/01/16 01:20:59;;;;;;;10.85;2.58;;;4.40;99.90;;;;;;5051105;28;20053;-66
2023/01/16 01:23:25;;;;;;;6.97;1.85;;;4.50;99.90;;;;;;5049661;28;20057;-65
2023/01/16 01:25:52;;;;;;;4.30;1.95;;;4.40;99.90;;;;;;5052564;28;20057;-64
2023/01/16 01:28:18;;;;;;;6.00;1.88;;;4.50;99.90;;;;;;5051310;28;20057;-64
2023/01/16 01:30:44;;;;;;;5.97;2.45;;;4.50;99.90;;;;;;5050457;28;20493;-64
2023/01/16 01:33:10;;;;;;;7.80;1.85;;;4.50;99.90;;;;;;5050970;28;20054;-64
2023/01/16 01:35:36;;;;;;;4.95;2.05;;;4.50;99.90;;;;;;5051555;28;20064;-65
2023/01/16 01:38:02;;;;;;;6.47;2.47;;;4.50;99.90;;;;;;5050480;28;20083;-64
2023/01/16 01:40:28;;;;;;;8.05;2.33;;;4.40;99.90;;;;;;5043387;28;20042;-65
2023/01/16 01:42:54;;;;;;;7.75;2.25;;;4.50;99.90;;;;;;5045170;28;20045;-65
2023/01/16 01:45:25;;;;;;;9.65;2.33;;;4.50;99.90;;;;;;5043793;28;20080;-65
2023/01/16 01:48:02;;;;;;;7.97;2.38;;;4.50;99.90;;;;;;5043004;28;20740;-67
2023/01/16 01:50:36;;;;;;;5.45;2.22;;;4.50;99.90;;;;;;5051249;28;20120;-63
2023/01/16 01:53:08;;;;;;;6.82;1.98;;;4.50;99.90;;;;;;5049387;28;20044;-64
2023/01/16 01:55:34;;;;;;;6.93;2.30;;;4.50;99.90;;;;;;5050188;28;20037;-64
2023/01/16 01:58:01;;;;;;;8.10;2.47;;;4.50;99.90;;;;;;5048298;28;20056;-64
2023/01/16 02:00:28;;;;;;;8.18;2.55;;;4.50;99.90;;;;;;5051175;28;20055;-64
2023/01/16 02:03:06;;;;;;;6.38;2.30;;;4.50;99.90;;;;;;5048799;28;20041;-65
2023/01/16 02:05:44;;;;;;;9.23;2.33;;;4.50;99.90;;;;;;5049726;28;20049;-65
2023/01/16 02:08:18;;;;;;;7.18;2.63;;;4.50;99.90;;;;;;5050973;28;20087;-64
2023/01/16 02:10:48;;;;;;;6.35;2.45;;;4.50;99.90;;;;;;5049124;28;20173;-64
2023/01/16 02:13:15;;;;;;;6.97;2.90;;;4.60;99.90;;;;;;5048847;28;20044;-64
2023/01/16 02:19:14;;;;;;;6.70;2.58;;;4.50;99.90;;;;;;5051672;28;20052;-62
2023/01/16 02:21:32;;;;;;;5.00;2.72;;;4.50;99.90;;;;;;5050786;28;20086;-68
2023/01/16 02:24:07;;;;;;;7.03;3.00;;;3.50;99.90;;;;;;5049515;28;20045;-65
2023/01/16 02:26:46;;;;;;;7.10;2.78;;;4.40;99.90;;;;;;5044078;28;20045;-65
2023/01/16 02:29:35;;;;;;;6.93;3.28;;;4.30;99.90;;;;;;5042101;28;20041;-65
2023/01/16 02:32:06;;;;;;;7.47;3.22;;;4.30;99.90;;;;;;5044564;28;20768;-65
2023/01/16 02:34:55;;;;;;;7.60;2.63;;;4.20;99.90;;;;;;5047547;28;20146;-65
2023/01/16 02:38:20;;;;;;;4.22;2.45;;;4.20;99.90;;;;;;5045338;28;20111;-66
2023/01/16 02:41:41;;;;;;;9.75;3.08;;;4.20;99.90;;;;;;5034289;28;21141;-66
2023/01/16 02:44:38;;;;;;;6.97;3.30;;;4.20;99.90;;;;;;5034239;28;21472;-65
2023/01/16 02:47:17;;;;;;;7.30;3.30;;;4.20;99.90;;;;;;5042087;28;20099;-64
2023/01/16 02:50:08;;;;;;;7.88;2.85;;;4.20;99.90;;;;;;5048817;28;20049;-64
2023/01/16 02:53:10;;;;;;;7.15;3.47;;;4.30;99.90;;;;;;5035346;28;20116;-64
2023/01/16 02:55:45;;;;;;;8.55;3.28;;;4.30;99.90;;;;;;5049630;28;20489;-64
2023/01/16 02:58:14;;;;;;;8.23;4.20;;;4.30;99.90;;;;;;5046313;28;20101;-65
2023/01/16 03:00:50;;;;;;;10.15;4.03;;;4.30;99.90;;;;;;5029821;28;20075;-65
2023/01/16 03:03:50;;;;;;;7.55;3.35;;;4.30;99.90;;;;;;5049621;28;20100;-64
2023/01/16 03:06:44;;;;;;;9.40;4.55;;;4.30;99.90;;;;;;5046812;28;20041;-64
2023/01/16 03:09:28;;;;;;;8.70;4.25;;;4.30;99.90;;;;;;5047491;28;20128;-64
2023/01/16 03:12:23;;;;;;;7.32;3.60;;;4.30;99.90;;;;;;5049114;28;20045;-64
2023/01/16 03:14:56;;;;;;;7.43;4.47;;;4.30;99.90;;;;;;5044652;28;20155;-65
2023/01/16 03:17:42;;;;;;;8.85;3.72;;;4.40;99.90;;;;;;5046699;28;20045;-65
2023/01/16 03:20:16;;;;;;;13.80;4.60;;;4.30;99.90;;;;;;5046645;28;20060;-64
2023/01/16 03:22:57;;;;;;;8.18;4.72;;;4.30;99.90;;;;;;5046642;28;20063;-65
2023/01/16 03:25:40;;;;;;;8.43;4.50;;;4.40;99.90;;;;;;5048981;28;20059;-66
2023/01/16 03:28:26;;;;;;;10.95;5.35;;;4.40;99.90;;;;;;5049492;28;20052;-65
2023/01/16 03:31:09;;;;;;;11.48;5.90;;;4.40;99.90;;;;;;5046173;28;20576;-66
2023/01/16 03:34:08;;;;;;;10.10;5.93;;;4.40;99.90;;;;;;5049536;28;20049;-65
2023/01/16 03:36:59;;;;;;;14.13;7.22;;;4.40;99.90;;;;;;5034251;28;20057;-65
2023/01/16 03:39:32;;;;;;;9.18;6.13;;;4.40;99.90;;;;;;5039582;28;20052;-64
2023/01/16 03:42:10;;;;;;;10.85;6.10;;;4.40;99.90;;;;;;5042963;28;20044;-64
2023/01/16 03:44:41;;;;;;;14.95;6.90;;;4.40;99.90;;;;;;5040898;28;20101;-64
2023/01/16 03:47:13;;;;;;;11.02;6.72;;;4.40;99.90;;;;;;5042589;28;20103;-64
2023/01/16 03:49:47;;;;;;;11.52;6.40;;;4.40;99.90;;;;;;5044299;28;20053;-65
2023/01/16 03:52:17;;;;;;;14.18;6.82;;;4.60;99.90;;;;;;5039006;28;20058;-65
2023/01/16 03:55:13;;;;;;;14.60;8.48;;;4.40;99.90;;;;;;5049887;28;20627;-64
2023/01/16 03:57:46;;;;;;;14.63;8.48;;;4.40;99.90;;;;;;5047717;28;20063;-65
2023/01/16 04:00:12;;;;;;;14.65;8.95;;;4.50;99.90;;;;;;5046987;28;20044;-65
2023/01/16 04:02:50;;;;;;;15.02;9.20;;;4.40;99.90;;;;;;5050156;28;20106;-66
2023/01/16 04:05:28;;;;;;;19.30;9.73;;;4.50;99.90;;;;;;5048685;28;20072;-66
2023/01/16 04:08:16;;;;;;;15.57;8.93;;;4.40;99.90;;;;;;5049608;28;20037;-65
2023/01/16 04:10:45;;;;;;;16.23;11.60;;;4.50;99.90;;;;;;5046752;28;20083;-65
2023/01/16 04:13:15;;;;;;;18.77;12.45;;;4.50;99.90;;;;;;5048120;28;20029;-65
2023/01/16 04:15:47;;;;;;;20.80;11.52;;;4.50;99.90;;;;;;5044357;28;20045;-65
2023/01/16 04:18:13;;;;;;;18.50;11.82;;;4.50;99.90;;;;;;5039412;28;20091;-64
2023/01/16 04:20:42;;;;;;;21.35;12.85;;;4.50;99.90;;;;;;5043987;28;20056;-67
2023/01/16 04:23:07;;;;;;;15.73;11.65;;;4.70;99.90;;;;;;5043554;28;20037;-65
2023/01/16 04:25:33;;;;;;;18.52;12.32;;;4.60;99.90;;;;;;5046623;28;20053;-65
2023/01/16 04:27:59;;;;;;;22.80;13.00;;;4.60;99.90;;;;;;5049239;28;20106;-64
2023/01/16 04:30:24;;;;;;;22.38;12.27;;;4.90;99.90;;;;;;5049085;28;20105;-65
2023/01/16 04:32:50;;;;;;;18.17;12.18;;;4.50;99.90;;;;;;5050022;28;20071;-64
2023/01/16 04:35:16;;;;;;;20.88;11.68;;;4.50;99.90;;;;;;5047902;28;20053;-66
2023/01/16 04:37:41;;;;;;;19.48;11.13;;;4.50;99.90;;;;;;5049653;28;20092;-65
2023/01/16 04:40:08;;;;;;;19.40;11.52;;;4.40;99.90;;;;;;5046097;28;20048;-64
2023/01/16 04:42:35;;;;;;;22.30;11.63;;;4.30;99.90;;;;;;5048796;28;20044;-65
2023/01/16 04:45:01;;;;;;;22.02;12.25;;;4.30;99.90;;;;;;5047384;28;20049;-67
2023/01/16 04:47:27;;;;;;;17.42;10.25;;;4.20;99.90;;;;;;5049104;28;20064;-65
2023/01/16 04:49:52;;;;;;;16.20;10.32;;;4.30;99.90;;;;;;5048817;28;20049;-65
2023/01/16 04:52:18;;;;;;;22.10;11.40;;;4.10;99.90;;;;;;5048264;28;20102;-64
2023/01/16 04:54:44;;;;;;;21.70;11.07;;;4.00;99.90;;;;;;5049822;28;20069;-64
2023/01/16 04:57:10;;;;;;;16.83;10.60;;;4.00;99.90;;;;;;5049251;28;20100;-64
2023/01/16 04:59:35;;;;;;;18.00;10.77;;;3.90;99.90;;;;;;5050611;28;21161;-64
2023/01/16 05:02:01;;;;;;;22.25;10.93;;;3.90;99.90;;;;;;5049633;28;20128;-64
2023/01/16 05:04:27;;;;;;;18.73;10.13;;;3.90;99.90;;;;;;5050212;28;20055;-64
2023/01/16 05:06:52;;;;;;;17.17;10.25;;;3.80;99.90;;;;;;5052566;28;20044;-64
2023/01/16 05:09:18;;;;;;;14.13;8.75;;;3.70;99.90;;;;;;5046426;28;20048;-65
2023/01/16 05:11:44;;;;;;;20.75;9.63;;;3.70;99.90;;;;;;5049323;28;20059;-65
2023/01/16 05:14:10;;;;;;;14.23;8.05;;;3.70;99.90;;;;;;5049915;28;20095;-64
2023/01/16 05:16:38;;;;;;;16.75;9.50;;;3.80;99.90;;;;;;5051051;28;20041;-64
2023/01/16 05:19:04;;;;;;;15.45;8.48;;;3.60;99.90;;;;;;5051528;28;20056;-66
2023/01/16 05:21:31;;;;;;;15.82;7.05;;;3.60;99.90;;;;;;5051486;28;20065;-64
2023/01/16 05:23:57;;;;;;;18.92;7.40;;;3.60;99.90;;;;;;5051072;28;20060;-63
2023/01/16 05:26:22;;;;;;;14.40;7.93;;;3.70;99.90;;;;;;5051314;28;20037;-64
2023/01/16 05:28:48;;;;;;;15.73;6.60;;;3.70;99.90;;;;;;5050854;28;20048;-65
2023/01/16 05:31:14;;;;;;;8.18;5.60;;;3.70;99.90;;;;;;5050733;28;20045;-65
2023/01/16 05:33:40;;;;;;;12.43;6.30;;;3.70;99.90;;;;;;5052008;28;20045;-65
2023/01/16 05:36:06;;;;;;;10.18;5.53;;;3.70;99.90;;;;;;5050226;28;20528;-65
2023/01/16 05:38:32;;;;;;;11.27;5.28;;;3.70;99.90;;;;;;5050611;28;20045;-65
2023/01/16 05:40:58;;;;;;;10.95;5.13;;;3.80;99.90;;;;;;5050383;28;20048;-65
2023/01/16 05:43:24;;;;;;;9.48;5.25;;;3.70;99.90;;;;;;5051198;28;20495;-65
2023/01/16 05:45:49;;;;;;;10.85;4.63;;;3.60;99.90;;;;;;5050623;28;20381;-65
2023/01/16 05:48:15;;;;;;;9.68;5.07;;;3.60;99.90;;;;;;5051362;28;20067;-65
2023/01/16 05:50:41;;;;;;;11.27;4.93;;;3.60;99.90;;;;;;5049753;28;20091;-64
2023/01/16 05:53:06;;;;;;;9.73;4.47;;;3.60;99.90;;;;;;5046530;28;20051;-63
2023/01/16 05:55:41;;;;;;;8.43;4.70;;;3.60;99.90;;;;;;5050235;28;20060;-64
2023/01/16 05:58:11;;;;;;;8.98;4.70;;;3.60;99.90;;;;;;5052248;28;20045;-64
2023/01/16 06:00:38;;;;;;;8.40;4.40;;;3.60;99.90;;;;;;5050202;28;20042;-64
2023/01/16 06:03:04;;;;;;;9.07;4.28;;;3.60;99.90;;;;;;5051971;28;20059;-64
2023/01/16 06:05:30;;;;;;;11.45;4.65;;;3.60;99.90;;;;;;5049568;28;20103;-65
2023/01/16 06:07:56;;;;;;;8.85;4.35;;;3.60;99.90;;;;;;5049557;28;20572;-65
2023/01/16 06:10:22;;;;;;;9.50;4.32;;;3.70;99.90;;;;;;5050876;28;20048;-64
2023/01/16 06:12:48;;;;;;;10.48;4.75;;;3.80;99.90;;;;;;5050257;28;20059;-65
2023/01/16 06:15:14;;;;;;;11.23;4.47;;;3.50;99.90;;;;;;5046883;28;20413;-66
2023/01/16 06:17:39;;;;;;;7.13;4.13;;;3.50;99.90;;;;;;5050661;28;20069;-64
2023/01/16 06:20:05;;;;;;;11.98;4.40;;;3.70;99.90;;;;;;5051212;28;20081;-65
2023/01/16 06:22:31;;;;;;;8.93;3.60;;;3.50;99.90;;;;;;5048686;28;20084;-64
2023/01/16 06:24:57;;;;;;;11.98;4.78;;;3.50;99.90;;;;;;5050141;28;20044;-65
2023/01/16 06:27:22;;;;;;;7.00;3.60;;;3.50;99.90;;;;;;5049012;28;20111;-64
2023/01/16 06:29:48;;;;;;;7.22;3.20;;;3.50;99.90;;;;;;5050010;28;20044;-64
2023/01/16 06:32:16;;;;;;;12.05;4.32;;;3.50;99.90;;;;;;5050568;28;20033;-64
2023/01/16 06:34:42;;;;;;;7.95;3.28;;;3.50;99.90;;;;;;5049327;28;20049;-64
2023/01/16 06:37:08;;;;;;;7.20;3.33;;;3.50;99.90;;;;;;5043600;28;20057;-64
2023/01/16 06:39:34;;;;;;;6.25;3.17;;;3.60;99.90;;;;;;5043212;28;20044;-64
2023/01/16 06:42:00;;;;;;;7.47;3.17;;;3.50;99.90;;;;;;5045554;28;20049;-63
2023/01/16 06:44:26;;;;;;;10.98;2.97;;;3.50;99.90;;;;;;5040869;28;20045;-63
2023/01/16 06:46:51;;;;;;;12.05;3.20;;;3.50;99.90;;;;;;5050118;28;20065;-64
2023/01/16 06:49:17;;;;;;;8.57;2.88;;;3.50;99.90;;;;;;5049365;28;20217;-63
2023/01/16 06:51:43;;;;;;;9.05;2.80;;;3.70;99.90;;;;;;5045481;28;20048;-63
2023/01/16 06:54:10;;;;;;;8.82;2.72;;;2.70;99.90;;;;;;5050209;28;20045;-63
2023/01/16 06:56:35;;;;;;;9.73;2.60;;;3.50;99.90;;;;;;5048630;28;20134;-63
2023/01/16 06:59:01;;;;;;;5.18;2.60;;;3.60;99.90;;;;;;5050735;28;20037;-62
2023/01/16 07:01:27;;;;;;;6.85;3.20;;;3.50;99.90;;;;;;5047752;28;20059;-63
2023/01/16 07:03:52;;;;;;;7.57;3.00;;;3.50;99.90;;;;;;5050477;28;20060;-63
2023/01/16 07:06:18;;;;;;;7.32;3.67;;;4.90;99.90;;;;;;5042411;28;20048;-62
2023/01/16 07:08:44;;;;;;;8.60;2.78;;;3.60;99.90;;;;;;5046846;28;20404;-63
2023/01/16 07:11:10;;;;;;;9.02;2.90;;;3.60;99.90;;;;;;5047737;28;20078;-63
2023/01/16 07:13:36;;;;;;;8.95;2.53;;;3.50;99.90;;;;;;5048138;28;20104;-65
2023/01/16 07:24:21;;;;;;;9.57;2.67;;;3.80;99.90;;;;;;5048311;28;20144;-64
2023/01/16 07:26:51;;;;;;;8.00;2.47;;;3.60;99.90;;;;;;5047569;28;20067;-64
2023/01/16 07:29:16;;;;;;;9.65;2.83;;;3.70;99.90;;;;;;5049553;28;20041;-64
2023/01/16 07:31:43;;;;;;;7.80;2.42;;;3.70;99.90;;;;;;5043103;28;20199;-64
2023/01/16 07:34:08;;;;;;;10.55;3.17;;;3.90;99.90;;;;;;5048462;28;20048;-63
2023/01/16 07:36:34;;;;;;;10.90;3.00;;;3.70;99.90;;;;;;5047701;28;20129;-63
2023/01/16 07:39:00;;;;;;;11.27;3.25;;;3.70;99.90;;;;;;5048146;28;20052;-63
2023/01/16 07:41:25;;;;;;;7.90;3.10;;;3.70;99.90;;;;;;5045043;28;20500;-64
2023/01/16 07:43:51;;;;;;;6.50;3.50;;;3.80;99.90;;;;;;5047222;28;20037;-63
2023/01/16 07:46:17;;;;;;;8.50;3.03;;;3.80;99.90;;;;;;5047245;28;20540;-63
2023/01/16 07:48:42;;;;;;;9.13;3.25;;;3.80;99.90;;;;;;5043451;28;20036;-64
2023/01/16 07:51:08;;;;;;;9.27;3.05;;;3.80;99.90;;;;;;5048091;28;20072;-63
2023/01/16 07:53:34;;;;;;;8.68;3.67;;;3.80;99.90;;;;;;5048266;28;20045;-65
2023/01/16 07:56:01;;;;;;;11.73;3.10;;;4.00;99.90;;;;;;5049088;28;20037;-63
2023/01/16 07:58:28;;;;;;;11.13;3.60;;;3.90;99.90;;;;;;5047033;28;20048;-63
2023/01/16 08:00:55;;;;;;;9.20;3.20;;;3.90;99.90;;;;;;5046593;28;20785;-63
2023/01/16 08:03:22;;;;;;;14.25;3.80;;;4.00;99.90;;;;;;5045674;28;20033;-64
2023/01/16 08:05:49;;;;;;;8.88;3.80;;;4.00;99.90;;;;;;5048199;28;20088;-64
2023/01/16 08:08:16;;;;;;;7.18;2.67;;;3.90;99.90;;;;;;5047686;28;20052;-65
2023/01/16 08:10:42;;;;;;;10.00;3.88;;;4.00;99.90;;;;;;5027925;28;20076;-64
2023/01/16 08:13:07;;;;;;;7.20;3.35;;;4.10;99.90;;;;;;5044198;28;20840;-63
2023/01/16 08:15:33;;;;;;;12.07;3.55;;;4.00;99.90;;;;;;5045376;28;20104;-64
2023/01/16 08:17:59;;;;;;;6.45;2.95;;;4.00;99.90;;;;;;5044562;28;20040;-64
2023/01/16 08:20:25;;;;;;;6.90;3.13;;;4.00;99.90;;;;;;5049253;28;20045;-64
2023/01/16 08:22:51;;;;;;;10.25;3.70;;;4.00;99.90;;;;;;5045959;28;20068;-64
2023/01/16 08:25:19;;;;;;;10.43;3.80;;;4.00;99.90;;;;;;5031784;28;20045;-64
2023/01/16 08:27:45;;;;;;;8.98;3.92;;;4.00;99.90;;;;;;5046855;28;20680;-64
2023/01/16 08:30:12;;;;;;;7.90;3.97;;;4.00;99.90;;;;;;5048043;28;20045;-65
2023/01/16 08:32:38;;;;;;;8.82;3.58;;;4.00;99.90;;;;;;5049254;28;20037;-64
2023/01/16 08:35:04;;;;;;;9.02;3.70;;;4.00;99.90;;;;;;5050421;28;20055;-65
2023/01/16 08:37:31;;;;;;;8.15;3.92;;;4.00;99.90;;;;;;5051049;28;20132;-64
2023/01/16 08:39:56;;;;;;;5.88;3.28;;;4.10;99.90;;;;;;5048708;28;20121;-65
2023/01/16 08:53:22;;;;;;;7.32;3.33;;;4.20;99.90;;;;;;5048930;28;20049;-62
2023/01/16 08:55:49;;;;;;;7.90;3.80;;;4.00;99.90;;;;;;5051784;28;20041;-63
2023/01/16 08:58:14;;;;;;;7.38;3.30;;;4.00;99.90;;;;;;5052045;28;20103;-63
2023/01/16 09:00:40;;;;;;;5.07;2.78;;;4.00;99.90;;;;;;5050707;28;20073;-62
2023/01/16 09:03:06;;;;;;;10.30;3.53;;;4.00;99.90;;;;;;5050945;28;20052;-63
2023/01/16 09:05:32;;;;;;;4.25;2.60;;;4.10;99.90;;;;;;5049660;28;20139;-63
2023/01/16 09:07:58;;;;;;;7.07;2.70;;;4.10;99.90;;;;;;5053054;28;20049;-62
2023/01/16 09:10:24;;;;;;;5.68;2.60;;;4.20;99.90;;;;;;5050161;28;20051;-62
2023/01/16 09:15:34;;;;;;;7.03;3.20;;;4.10;99.90;;;;;;5051417;28;20048;-63
2023/01/16 09:18:00;;;;;;;11.85;2.60;;;4.10;99.90;;;;;;5047260;28;20132;-62
2023/01/16 09:20:26;;;;;;;4.63;1.90;;;4.10;99.90;;;;;;5049684;28;20060;-61
2023/01/16 09:23:00;;;;;;;6.22;2.50;;;4.10;99.90;;;;;;5049794;28;20068;-61
2023/01/16 09:25:27;;;;;;;3.95;1.92;;;4.10;99.90;;;;;;5049416;28;20392;-60
2023/01/16 09:27:53;;;;;;;4.72;2.30;;;4.10;99.90;;;;;;5052042;28;20055;-61
2023/01/16 09:30:19;;;;;;;5.20;1.83;;;4.30;99.90;;;;;;5050772;28;20049;-61
2023/01/16 09:32:45;;;;;;;4.88;1.80;;;4.10;99.90;;;;;;5024024;28;20052;-61
2023/01/16 09:35:11;;;;;;;4.18;2.00;;;4.10;99.90;;;;;;5049674;28;20381;-61
2023/01/16 09:37:37;;;;;;;4.47;1.92;;;4.40;99.90;;;;;;5049211;28;20076;-61
2023/01/16 09:40:04;;;;;;;3.22;1.60;;;4.20;99.90;;;;;;5042630;28;20568;-61
2023/01/16 09:45:54;;;;;;;4.95;1.80;;;4.20;99.90;;;;;;5046132;28;20507;-63
2023/01/16 09:48:30;;;;;;;3.28;1.60;;;4.10;99.90;;;;;;5049696;28;20041;-62
2023/01/16 09:51:07;;;;;;;3.75;1.60;;;4.10;99.90;;;;;;5050033;28;20048;-62
2023/01/16 09:59:31;;;;;;;6.22;1.45;;;4.10;99.90;;;;;;5047674;28;20053;-81
2023/01/16 10:02:07;;;;;;;3.78;2.10;;;4.10;99.90;;;;;;5047759;28;20064;-79
2023/01/16 10:04:33;;;;;;;4.05;1.17;;;4.10;99.90;;;;;;5049322;28;20188;-81
2023/01/16 10:07:30;;;;;;;3.97;1.60;;;4.00;99.90;;;;;;5047191;28;20052;-72
2023/01/16 10:10:05;;;;;;;3.85;1.88;;;4.00;99.90;;;;;;5042523;28;20123;-63
2023/01/16 10:12:39;;;;;;;2.50;1.30;;;4.00;99.90;;;;;;5047714;28;20048;-61
2023/01/16 10:15:11;;;;;;;4.85;1.73;;;4.00;99.90;;;;;;5046330;28;20195;-64
2023/01/16 10:18:06;;;;;;;3.78;1.40;;;4.00;99.90;;;;;;5048959;28;20049;-63
2023/01/16 10:20:51;;;;;;;5.00;1.50;;;4.00;99.90;;;;;;5050052;28;20057;-64
2023/01/16 10:23:53;;;;;;;3.07;1.33;;;4.80;99.90;;;;;;5047471;28;20049;-61
2023/01/16 10:26:29;;;;;;;3.75;2.17;;;3.90;99.90;;;;;;5046317;28;20053;-62
2023/01/16 10:29:13;;;;;;;4.30;2.05;;;3.90;99.90;;;;;;5044853;28;20269;-61
2023/01/16 10:31:44;;;;;;;3.45;1.60;;;3.90;99.90;;;;;;5041380;28;20044;-61
2023/01/16 10:34:40;;;;;;;2.78;1.55;;;3.90;99.90;;;;;;5048142;28;21462;-61
2023/01/16 10:37:06;;;;;;;3.63;2.42;;;3.90;99.90;;;;;;5046668;28;20138;-61
2023/01/16 10:39:35;;;;;;;3.20;1.70;;;3.90;99.90;;;;;;5044029;28;20044;-61
2023/01/16 10:50:37;;;;;;;4.38;2.13;;;3.80;99.90;;;;;;5047121;28;20040;-62
2023/01/16 10:53:08;;;;;;;3.00;1.90;;;3.90;99.90;;;;;;5040189;28;20106;-62
2023/01/16 10:55:35;;;;;;;3.60;2.40;;;4.00;99.90;;;;;;5048856;28;20160;-62
2023/01/16 10:58:37;;;;;;;4.15;1.80;;;3.90;99.90;;;;;;5046952;28;20067;-62
2023/01/16 11:01:09;;;;;;;4.68;1.98;;;3.90;99.90;;;;;;5048270;28;20052;-62
2023/01/16 11:03:39;;;;;;;4.63;2.33;;;3.90;99.90;;;;;;5049354;28;20134;-62
2023/01/16 11:06:27;;;;;;;4.30;2.15;;;3.90;99.90;;;;;;5045707;28;20107;-61
2023/01/16 11:09:13;;;;;;;4.18;2.38;;;3.90;99.90;;;;;;5049287;28;20300;-62
2023/01/16 11:20:34;;;;;;;4.65;2.10;;;4.00;99.90;;;;;;5032702;28;20809;-62
2023/01/16 11:23:13;;;;;;;4.05;2.42;;;4.00;99.90;;;;;;5038464;28;20408;-61
2023/01/16 11:25:39;;;;;;;4.72;1.80;;;4.00;99.90;;;;;;5036179;28;20067;-61
2023/01/16 11:28:08;;;;;;;4.05;1.92;;;4.00;99.90;;;;;;5044610;28;20052;-62
2023/01/16 11:30:42;;;;;;;3.47;1.80;;;4.10;99.90;;;;;;5044979;28;20045;-62
2023/01/16 11:33:22;;;;;;;5.80;2.10;;;4.10;99.90;;;;;;5045822;28;20060;-63
2023/01/16 11:35:57;;;;;;;7.75;2.83;;;4.10;99.90;;;;;;5044466;28;20101;-62
2023/01/16 11:38:25;;;;;;;3.45;1.92;;;4.10;99.90;;;;;;5046010;28;20052;-62
2023/01/16 11:40:54;;;;;;;4.45;2.17;;;4.10;99.90;;;;;;5042586;28;20054;-61
2023/01/16 11:46:28;;;;;;;3.78;2.03;;;4.20;99.90;;;;;;5043502;28;20048;-61
2023/01/16 11:48:57;;;;;;;3.47;2.20;;;4.20;99.90;;;;;;5042209;28;20056;-61
2023/01/16 11:51:37;;;;;;;3.60;1.98;;;4.20;99.90;;;;;;5043115;28;20497;-61
2023/01/16 11:54:08;;;;;;;5.55;2.22;;;4.40;99.90;;;;;;5044785;28;20049;-62
2023/01/16 11:56:48;;;;;;;3.00;2.10;;;4.30;99.90;;;;;;5043444;28;20037;-60
2023/01/16 11:59:39;;;;;;;2.60;2.08;;;4.30;99.90;;;;;;5045930;28;20053;-60
2023/01/16 12:02:21;;;;;;;5.80;2.13;;;4.30;99.90;;;;;;5044362;28;20045;-61
2023/01/16 12:08:28;;;;;;;4.00;2.30;;;4.40;99.90;;;;;;5047880;28;20112;-60
2023/01/16 12:10:57;;;;;;;3.47;2.38;;;4.40;99.90;;;;;;5040495;28;20055;-60
2023/01/16 12:17:00;;;;;;;7.03;2.40;;;4.40;99.90;;;;;;5045271;28;20052;-60
2023/01/16 12:19:44;;;;;;;4.03;2.00;;;4.40;99.90;;;;;;5047900;28;20048;-61
2023/01/16 12:22:37;;;;;;;4.47;2.78;;;4.50;99.90;;;;;;5049962;28;20053;-61
2023/01/16 12:25:32;;;;;;;5.35;2.28;;;4.50;99.90;;;;;;5051458;28;20065;-61
2023/01/16 12:28:07;;;;;;;3.55;2.30;;;4.50;99.90;;;;;;5048135;28;20049;-61
2023/01/16 12:30:50;;;;;;;2.47;2.15;;;4.50;99.90;;;;;;5043688;28;20390;-62
2023/01/16 12:34:03;;;;;;;3.72;2.15;;;4.60;99.90;;;;;;5049811;28;20478;-62
2023/01/16 12:36:35;;;;;;;3.90;2.58;;;4.60;99.90;;;;;;5029859;28;20057;-62
2023/01/16 12:39:13;;;;;;;4.05;2.63;;;4.60;99.90;;;;;;5028438;28;20084;-62
2023/01/16 12:44:48;;;;;;;3.67;2.30;;;4.60;99.90;;;;;;5048551;28;20528;-62
2023/01/16 12:47:32;;;;;;;6.25;2.33;;;4.60;99.90;;;;;;5049217;28;20056;-62
2023/01/16 12:50:07;;;;;;;5.38;2.35;;;4.60;99.90;;;;;;5046735;28;20426;-61
2023/01/16 12:52:42;;;;;;;4.47;2.50;;;4.60;99.90;;;;;;5044668;28;20780;-61
2023/01/16 12:55:26;;;;;;;6.90;2.58;;;4.60;99.90;;;;;;5048114;28;20052;-61
2023/01/16 12:57:58;;;;;;;3.22;2.72;;;4.70;99.90;;;;;;5047441;28;20044;-61
2023/01/16 13:00:28;;;;;;;3.17;2.50;;;4.70;99.90;;;;;;5046702;28;20505;-60
2023/01/16 13:03:16;;;;;;;3.67;2.33;;;4.60;99.90;;;;;;5049144;28;20052;-60
2023/01/16 13:05:44;;;;;;;4.30;2.45;;;4.70;99.90;;;;;;5047271;28;20072;-62
2023/01/16 13:08:27;;;;;;;4.07;2.40;;;4.70;99.90;;;;;;5051890;28;20049;-61
2023/01/16 13:13:57;;;;;;;2.78;1.92;;;4.80;99.90;;;;;;5047271;28;20053;-61
2023/01/16 13:16:52;;;;;;;3.65;2.17;;;4.80;99.90;;;;;;5051275;28;20468;-61
2023/01/16 13:19:23;;;;;;;2.55;1.75;;;4.80;99.90;;;;;;5047271;28;20045;-61
2023/01/16 13:22:03;;;;;;;5.25;2.00;;;4.80;99.90;;;;;;5048942;28;20057;-61
2023/01/16 13:24:56;;;;;;;4.05;1.77;;;4.80;99.90;;;;;;5050864;28;20059;-61
2023/01/16 13:27:36;;;;;;;4.18;2.00;;;4.80;99.90;;;;;;5048991;28;20087;-61
2023/01/16 13:30:05;;;;;;;3.28;1.70;;;4.80;99.90;;;;;;5051366;28;20092;-61
2023/01/16 13:32:40;;;;;;;3.20;1.83;;;4.80;99.90;;;;;;5046985;28;20114;-61
2023/01/16 13:35:14;;;;;;;3.92;2.03;;;4.80;99.90;;;;;;5045504;28;20068;-61
2023/01/16 13:38:22;;;;;;;4.93;2.03;;;4.80;99.90;;;;;;5049820;28;20040;-62
2023/01/16 13:41:16;;;;;;;2.80;1.75;;;4.90;99.90;;;;;;5045829;28;20061;-62
2023/01/16 13:46:35;;;;;;;2.28;1.45;;;4.90;99.90;;;;;;5048136;28;20124;-62
2023/01/16 13:49:03;;;;;;;2.97;1.80;;;4.90;99.90;;;;;;5046090;28;20041;-62
2023/01/16 13:51:29;;;;;;;6.28;1.55;;;4.90;99.90;;;;;;5047449;28;20101;-62
2023/01/16 13:54:04;;;;;;;3.90;2.00;;;4.90;99.90;;;;;;5048045;28;20132;-61
2023/01/16 13:56:30;;;;;;;3.03;1.98;;;5.00;99.90;;;;;;5043816;28;20064;-62
2023/01/16 13:59:08;;;;;;;2.33;1.33;;;5.00;99.90;;;;;;5044778;28;20048;-62
2023/01/16 14:01:42;;;;;;;3.45;1.50;;;5.00;99.90;;;;;;5045751;28;20048;-63
2023/01/16 14:04:11;;;;;;;2.35;1.40;;;4.90;99.90;;;;;;5047448;28;20045;-62
2023/01/16 14:09:03;;;;;;;3.55;1.40;;;5.00;99.90;;;;;;5045593;28;20048;-61
2023/01/16 14:10:09;;;;;;;1.85;1.10;;;4.90;99.90;;;;;;5043353;28;20060;-62
2023/01/16 14:13:14;;;;;;;1.92;1.27;;;4.90;99.90;;;;;;5047122;28;20240;-63
2023/01/16 14:18:56;;;;;;;2.47;1.23;;;4.90;99.90;;;;;;5043937;28;20109;-62
2023/01/16 14:21:40;;;;;;;3.60;1.27;;;4.90;99.90;;;;;;5045009;28;20175;-62
2023/01/16 14:24:19;;;;;;;3.50;1.55;;;4.90;99.90;;;;;;5042745;28;20048;-63
2023/01/16 14:27:00;;;;;;;3.75;1.42;;;4.90;99.90;;;;;;5046642;28;20395;-63
2023/01/16 14:29:35;;;;;;;3.75;1.40;;;4.90;99.90;;;;;;5047872;28;20056;-63
2023/01/16 14:32:16;;;;;;;2.50;1.40;;;4.90;99.90;;;;;;5045982;28;20067;-63